Time;durP1;ratioP1;P1;durP2;ratioP2;P2;SDS_P1;SDS_P2;PMS_P1;PMS_P2;Temp;Humidity;BMP_temperature;BMP_pressure;BME280_temperature;BME280_humidity;BME280_pressure;Samples;Min_cycle;Max_cycle;Signal;HPM_P1;HPM_P2
2021/10/10 00:01:07;;;;;;;;;43.75;36.00;;;;;16.22;58.73;102213.44;6373251;22;45240;-63
2021/10/10 00:03:33;;;;;;;;;46.00;38.25;;;;;16.15;58.77;102209.22;6373669;22;45201;-63
2021/10/10 00:05:58;;;;;;;;;41.00;35.25;;;;;16.15;59.10;102212.78;6373610;22;45138;-63
2021/10/10 00:08:24;;;;;;;;;37.50;31.25;;;;;16.09;59.16;102204.91;6372994;22;46244;-63
2021/10/10 00:10:49;;;;;;;;;41.75;36.00;;;;;16.12;59.20;102215.56;6373615;22;45163;-63
2021/10/10 00:13:15;;;;;;;;;46.75;38.00;;;;;16.09;59.27;102205.78;6372961;22;45143;-63
2021/10/10 00:15:41;;;;;;;;;42.00;37.00;;;;;16.04;59.04;102210.44;6373112;22;45247;-63
2021/10/10 00:18:06;;;;;;;;;47.00;38.25;;;;;16.02;59.40;102206.91;6373304;22;45315;-63
2021/10/10 00:20:32;;;;;;;;;46.00;38.25;;;;;15.91;59.59;102201.00;6373794;22;45427;-63
2021/10/10 00:22:57;;;;;;;;;42.75;36.00;;;;;15.99;59.29;102207.00;6373634;22;45433;-63
2021/10/10 00:25:23;;;;;;;;;43.00;35.50;;;;;16.00;59.45;102214.13;6373496;22;45412;-63
2021/10/10 00:27:48;;;;;;;;;47.00;38.25;;;;;16.00;59.64;102208.75;6373276;22;46099;-63
2021/10/10 00:30:14;;;;;;;;;42.00;36.25;;;;;15.96;59.63;102206.22;6344780;22;45253;-63
2021/10/10 00:32:39;;;;;;;;;45.50;39.00;;;;;15.98;59.44;102218.69;6373506;22;45269;-63
2021/10/10 00:35:05;;;;;;;;;45.00;38.00;;;;;15.91;59.77;102204.56;6373333;22;45194;-63
2021/10/10 00:37:30;;;;;;;;;43.25;36.00;;;;;15.97;59.75;102213.38;6372446;22;45942;-63
2021/10/10 00:39:56;;;;;;;;;45.50;37.50;;;;;15.93;59.60;102212.59;6373620;22;45187;-63
2021/10/10 00:42:21;;;;;;;;;43.25;35.25;;;;;15.95;59.76;102215.22;6373771;22;45292;-63
2021/10/10 00:44:48;;;;;;;;;44.75;37.00;;;;;15.93;59.66;102210.75;6373283;22;45217;-63
2021/10/10 00:47:14;;;;;;;;;48.00;38.25;;;;;15.93;59.60;102221.53;6372829;22;45355;-63
2021/10/10 00:49:40;;;;;;;;;47.75;39.00;;;;;15.89;60.11;102217.19;6373366;22;45526;-63
2021/10/10 00:52:07;;;;;;;;;47.75;38.00;;;;;15.87;59.73;102216.38;6373734;22;45081;-63
2021/10/10 00:54:33;;;;;;;;;44.25;38.50;;;;;15.83;59.93;102214.69;6373130;22;45293;-63
2021/10/10 00:57:00;;;;;;;;;47.00;38.50;;;;;15.86;59.83;102209.19;6372930;22;46045;-63
2021/10/10 00:59:27;;;;;;;;;41.00;36.25;;;;;15.85;59.83;102215.50;6373356;22;45316;-63
2021/10/10 01:01:53;;;;;;;;;46.75;39.00;;;;;15.76;59.96;102201.47;6372999;22;45169;-63
2021/10/10 01:04:19;;;;;;;;;46.50;38.75;;;;;15.83;59.85;102222.75;6373359;22;45132;-63
2021/10/10 01:06:44;;;;;;;;;52.00;42.50;;;;;15.79;59.96;102206.78;6373361;22;46421;-63
2021/10/10 01:09:13;;;;;;;;;42.00;35.75;;;;;15.72;59.97;102204.22;6372999;22;45150;-63
2021/10/10 01:11:42;;;;;;;;;42.50;35.75;;;;;15.74;60.13;102212.25;6373572;22;45241;-63
2021/10/10 01:14:09;;;;;;;;;36.50;33.25;;;;;15.70;60.12;102208.78;6373276;22;45216;-63
2021/10/10 01:16:34;;;;;;;;;40.75;35.75;;;;;15.71;60.12;102215.91;6372928;22;45155;-63
2021/10/10 01:19:00;;;;;;;;;40.75;34.50;;;;;15.70;60.33;102202.47;6373148;22;45344;-63
2021/10/10 01:21:26;;;;;;;;;44.75;37.75;;;;;15.71;60.09;102210.53;6373558;22;45225;-63
2021/10/10 01:23:52;;;;;;;;;43.00;36.75;;;;;15.71;60.21;102210.53;6373432;22;45240;-63
2021/10/10 01:26:18;;;;;;;;;42.50;36.00;;;;;15.73;60.18;102210.47;6373171;22;46191;-63
2021/10/10 01:28:44;;;;;;;;;42.50;36.75;;;;;15.73;60.28;102203.28;6373289;22;45670;-63
2021/10/10 01:31:09;;;;;;;;;45.50;37.00;;;;;15.70;59.95;102202.47;6372619;22;45180;-63
2021/10/10 01:33:36;;;;;;;;;43.75;36.25;;;;;15.69;60.14;102201.63;6373349;22;45425;-63
2021/10/10 01:36:02;;;;;;;;;45.25;36.25;;;;;15.69;60.04;102200.75;6372965;22;45355;-63
2021/10/10 01:38:27;;;;;;;;;42.25;36.25;;;;;15.63;60.31;102199.09;6372532;22;45280;-63
2021/10/10 01:40:53;;;;;;;;;42.50;36.50;;;;;15.65;60.20;102193.66;6373055;22;45151;-62
2021/10/10 01:43:18;;;;;;;;;42.75;35.25;;;;;15.66;60.23;102207.09;6373216;22;45570;-63
2021/10/10 01:45:44;;;;;;;;;50.50;41.00;;;;;15.66;60.13;102207.09;6372784;22;45257;-63
2021/10/10 01:48:10;;;;;;;;;39.75;33.75;;;;;15.62;60.12;102193.75;6372506;22;45284;-63
2021/10/10 01:50:37;;;;;;;;;44.75;38.75;;;;;15.59;60.25;102189.38;6373038;22;45231;-63
2021/10/10 01:53:03;;;;;;;;;40.25;34.75;;;;;15.61;60.29;102192.88;6372614;22;45283;-63
2021/10/10 01:55:29;;;;;;;;;41.00;36.00;;;;;15.63;60.30;102188.34;6372819;22;46123;-63
2021/10/10 01:57:55;;;;;;;;;42.00;37.00;;;;;15.61;60.08;102184.81;6372329;22;45714;-63
2021/10/10 02:00:20;;;;;;;;;45.00;37.75;;;;;15.58;60.02;102179.53;6372634;22;45238;-63
2021/10/10 02:02:46;;;;;;;;;43.25;36.25;;;;;15.60;60.25;102187.56;6372613;22;45318;-63
2021/10/10 02:05:11;;;;;;;;;42.50;35.75;;;;;15.57;60.27;102183.16;6372740;22;46118;-63
2021/10/10 02:07:38;;;;;;;;;45.00;37.75;;;;;15.55;60.19;102183.19;6372243;22;45126;-63
2021/10/10 02:10:05;;;;;;;;;45.25;36.50;;;;;15.55;60.25;102187.69;6372888;22;45296;-62
2021/10/10 02:12:30;;;;;;;;;46.00;38.25;;;;;15.50;60.20;102174.38;6372398;22;45251;-62
2021/10/10 02:14:56;;;;;;;;;39.00;35.25;;;;;15.50;60.18;102176.19;6372395;22;45532;-63
2021/10/10 02:17:21;;;;;;;;;47.25;39.50;;;;;15.47;60.45;102181.66;6371860;22;45177;-63
2021/10/10 02:19:46;;;;;;;;;41.75;35.25;;;;;15.49;60.26;102190.59;6372793;22;45206;-63
2021/10/10 02:22:12;;;;;;;;;44.00;37.75;;;;;15.45;60.37;102180.81;6372618;22;45257;-63
2021/10/10 02:24:37;;;;;;;;;46.75;38.25;;;;;15.43;60.23;102177.31;6372226;22;45384;-63
2021/10/10 02:27:02;;;;;;;;;41.75;36.25;;;;;15.48;60.29;102183.41;6372522;22;45340;-62
2021/10/10 02:29:28;;;;;;;;;48.00;38.75;;;;;15.47;60.46;102181.66;6372065;22;45229;-63
2021/10/10 02:31:55;;;;;;;;;41.25;36.25;;;;;15.44;60.30;102188.03;6371669;22;45312;-63
2021/10/10 02:34:20;;;;;;;;;45.75;37.75;;;;;15.42;60.43;102180.91;6372498;22;45291;-63
2021/10/10 02:36:46;;;;;;;;;43.75;38.50;;;;;15.41;60.43;102184.53;6372044;22;45374;-63
2021/10/10 02:39:11;;;;;;;;;45.00;39.00;;;;;15.41;60.35;102189.94;6372376;22;45815;-63
2021/10/10 02:41:37;;;;;;;;;45.50;38.00;;;;;15.39;60.50;102187.28;6372796;22;45207;-63
2021/10/10 02:44:03;;;;;;;;;46.75;37.00;;;;;15.37;60.55;102183.75;6372231;22;45971;-63
2021/10/10 02:46:29;;;;;;;;;46.25;40.00;;;;;15.29;60.61;102167.81;6372167;22;45547;-63
2021/10/10 02:48:54;;;;;;;;;47.25;39.25;;;;;15.34;60.26;102186.53;6372249;22;45230;-63
2021/10/10 02:51:20;;;;;;;;;45.75;38.00;;;;;15.34;60.51;102195.47;6372344;22;45434;-63
2021/10/10 02:53:45;;;;;;;;;49.25;39.75;;;;;15.33;60.60;102188.31;6372318;22;45205;-63
2021/10/10 02:56:11;;;;;;;;;45.50;36.00;;;;;15.32;60.52;102196.47;6371651;22;45219;-63
2021/10/10 02:58:36;;;;;;;;;49.00;39.50;;;;;15.27;60.50;102185.84;6372341;22;45166;-63
2021/10/10 03:01:02;;;;;;;;;45.25;38.75;;;;;15.24;60.58;102182.34;6372173;22;45263;-63
2021/10/10 03:03:27;;;;;;;;;44.50;37.50;;;;;15.21;60.37;102177.94;6372421;22;45300;-63
2021/10/10 03:05:52;;;;;;;;;45.50;37.75;;;;;15.24;60.65;102187.72;6372483;22;45239;-63
2021/10/10 03:08:18;;;;;;;;;46.00;37.75;;;;;15.21;60.64;102185.13;6371513;22;45286;-63
2021/10/10 03:10:43;;;;;;;;;37.00;34.25;;;;;15.18;60.63;102184.28;6373442;22;45218;-63
2021/10/10 03:13:09;;;;;;;;;47.50;39.50;;;;;15.13;60.69;102188.88;6373792;22;45363;-63
2021/10/10 03:15:35;;;;;;;;;46.00;37.50;;;;;15.12;60.82;102188.97;6373458;22;45266;-63
2021/10/10 03:18:02;;;;;;;;;46.00;36.50;;;;;15.09;60.60;102184.53;6373940;22;45233;-63
2021/10/10 03:20:28;;;;;;;;;45.25;36.00;;;;;15.08;60.59;102187.28;6373781;22;45294;-63
2021/10/10 03:22:53;;;;;;;;;45.25;38.50;;;;;15.04;60.81;102182.91;6373744;22;46150;-63
2021/10/10 03:25:19;;;;;;;;;45.75;37.00;;;;;15.00;61.11;102184.78;6373824;22;45073;-63
2021/10/10 03:27:44;;;;;;;;;45.25;38.25;;;;;15.00;60.68;102179.41;6373248;22;45309;-63
2021/10/10 03:30:10;;;;;;;;;46.25;37.00;;;;;14.97;60.96;102183.09;6373389;22;45412;-62
2021/10/10 03:32:36;;;;;;;;;42.25;36.50;;;;;14.97;61.04;102187.59;6373538;22;45167;-62
2021/10/10 03:35:01;;;;;;;;;45.75;37.50;;;;;14.95;60.94;102184.94;6372999;22;45174;-63
2021/10/10 03:37:27;;;;;;;;;48.25;38.75;;;;;14.94;60.78;102184.97;6373090;22;45256;-63
2021/10/10 03:39:52;;;;;;;;;47.50;37.50;;;;;14.93;61.12;102185.91;6372765;22;45334;-63
2021/10/10 03:42:18;;;;;;;;;41.25;36.25;;;;;14.92;60.81;102190.41;6373539;22;45935;-63
2021/10/10 03:44:43;;;;;;;;;39.25;35.75;;;;;14.87;60.74;102183.34;6373496;22;45309;-62
2021/10/10 03:47:09;;;;;;;;;46.25;37.25;;;;;14.87;61.13;102178.88;6373044;22;45277;-63
2021/10/10 03:49:34;;;;;;;;;47.00;38.75;;;;;14.90;61.12;102191.34;6373543;22;45367;-63
2021/10/10 03:52:00;;;;;;;;;43.00;36.25;;;;;14.85;60.86;102186.13;6373613;22;45321;-63
2021/10/10 03:56:53;;;;;;;;;43.25;36.75;;;;;14.85;61.08;102183.44;6374017;22;45199;-63
2021/10/10 03:59:21;;;;;;;;;38.00;33.75;;;;;14.78;60.94;102168.38;6373073;22;45424;-63
2021/10/10 04:01:46;;;;;;;;;43.75;36.00;;;;;14.83;61.17;102185.25;6372924;22;47185;-63
2021/10/10 04:04:12;;;;;;;;;47.00;39.50;;;;;14.80;60.84;102180.88;6373081;22;45176;-62
2021/10/10 04:06:37;;;;;;;;;45.50;34.00;;;;;14.80;60.95;102188.94;6373231;22;45362;-63
2021/10/10 04:09:02;;;;;;;;;42.50;35.00;;;;;14.80;60.99;102199.69;6372703;22;45348;-63
2021/10/10 04:11:28;;;;;;;;;49.75;39.25;;;;;14.79;60.92;102189.84;6373602;22;45337;-63
2021/10/10 04:13:53;;;;;;;;;42.75;36.00;;;;;14.74;61.10;102183.72;6373395;22;45272;-63
2021/10/10 04:16:18;;;;;;;;;40.50;35.50;;;;;14.75;61.11;102188.16;6373118;22;45295;-62
2021/10/10 04:18:44;;;;;;;;;46.00;38.00;;;;;14.74;61.23;102182.84;6372989;22;45249;-63
2021/10/10 04:21:09;;;;;;;;;43.25;37.50;;;;;14.74;60.92;102189.09;6372532;22;46213;-63
2021/10/10 04:23:35;;;;;;;;;39.75;33.75;;;;;14.75;61.14;102184.56;6372913;22;45287;-63
2021/10/10 04:26:01;;;;;;;;;40.25;36.25;;;;;14.75;61.30;102193.53;6373734;22;45278;-63
2021/10/10 04:28:27;;;;;;;;;44.00;37.25;;;;;14.75;61.25;102196.22;6373247;22;45284;-62
2021/10/10 04:30:52;;;;;;;;;47.50;37.50;;;;;14.70;61.02;102195.47;6371544;22;46551;-63
2021/10/10 04:33:18;;;;;;;;;39.75;35.50;;;;;14.67;61.06;102184.81;6373499;22;45171;-62
2021/10/10 04:35:43;;;;;;;;;41.00;35.75;;;;;14.62;61.39;102186.72;6372904;22;45199;-63
2021/10/10 04:38:10;;;;;;;;;42.50;37.00;;;;;14.66;61.21;102198.28;6344639;22;45354;-63
2021/10/10 04:40:36;;;;;;;;;48.00;37.25;;;;;14.64;61.25;102191.13;6373394;22;46113;-62
2021/10/10 04:43:06;;;;;;;;;43.25;34.75;;;;;14.64;61.28;102191.13;6373570;22;45320;-63
2021/10/10 04:45:31;;;;;;;;;37.75;33.00;;;;;14.65;61.19;102197.41;6372854;22;45232;-62
2021/10/10 04:47:57;;;;;;;;;43.00;36.75;;;;;14.60;61.22;102191.25;6372841;22;45166;-62
2021/10/10 04:50:22;;;;;;;;;32.50;31.00;;;;;14.62;61.31;102197.47;6373201;22;47465;-63
2021/10/10 04:52:47;;;;;;;;;45.25;36.00;;;;;14.58;61.27;102204.72;6373365;22;45143;-62
2021/10/10 04:55:13;;;;;;;;;46.25;37.75;;;;;14.56;61.18;102203.84;6372997;22;45402;-63
2021/10/10 04:57:38;;;;;;;;;39.00;33.50;;;;;14.53;61.46;102208.41;6373096;22;45414;-62
2021/10/10 05:00:04;;;;;;;;;45.75;39.75;;;;;14.53;61.15;102211.97;6372513;22;46170;-62
2021/10/10 05:02:29;;;;;;;;;46.25;38.50;;;;;14.49;61.49;102201.38;6373274;22;45278;-62
2021/10/10 05:04:54;;;;;;;;;46.00;38.00;;;;;14.53;61.42;102206.59;6373495;22;45194;-62
2021/10/10 05:07:20;;;;;;;;;45.75;37.00;;;;;14.50;61.59;102212.09;6372624;22;45431;-62
2021/10/10 05:09:46;;;;;;;;;44.25;35.75;;;;;14.46;61.71;102199.63;6372378;22;45352;-62
2021/10/10 05:12:13;;;;;;;;;42.75;37.00;;;;;14.48;61.72;102207.66;6372521;22;45596;-62
2021/10/10 05:14:38;;;;;;;;;46.00;37.00;;;;;14.46;61.43;102203.19;6371788;22;45410;-62
2021/10/10 05:17:05;;;;;;;;;41.25;34.50;;;;;14.46;61.47;102213.94;6373390;22;45405;-62
2021/10/10 05:19:30;;;;;;;;;46.75;38.00;;;;;14.43;61.23;102205.97;6372881;22;46894;-62
2021/10/10 05:21:56;;;;;;;;;45.00;37.25;;;;;14.45;61.41;102209.50;6373180;22;45178;-62
2021/10/10 05:24:21;;;;;;;;;46.75;39.25;;;;;14.44;61.65;102202.34;6373214;22;45229;-62
2021/10/10 05:26:47;;;;;;;;;51.50;40.50;;;;;14.45;61.30;102200.56;6373267;22;45549;-62
2021/10/10 05:29:12;;;;;;;;;46.00;38.25;;;;;14.41;61.71;102205.13;6372588;22;46017;-62
2021/10/10 05:31:37;;;;;;;;;45.75;37.75;;;;;14.43;61.41;102218.50;6372185;22;45091;-62
2021/10/10 05:34:03;;;;;;;;;40.00;35.50;;;;;14.42;61.50;102217.63;6372975;22;45150;-62
2021/10/10 05:36:28;;;;;;;;;46.75;39.50;;;;;14.44;61.31;102212.22;6373293;22;45181;-62
2021/10/10 05:38:53;;;;;;;;;43.25;36.25;;;;;14.42;61.40;102220.31;6372877;22;45354;-62
2021/10/10 05:41:19;;;;;;;;;46.50;38.00;;;;;14.34;61.38;102211.56;6372740;22;45175;-62
2021/10/10 05:43:44;;;;;;;;;47.50;40.00;;;;;14.34;61.56;102224.13;6373507;22;45146;-62
2021/10/10 05:46:10;;;;;;;;;43.50;37.25;;;;;14.29;61.54;102224.22;6373005;22;45207;-62
2021/10/10 05:48:35;;;;;;;;;48.25;40.00;;;;;14.29;61.67;102220.69;6372411;22;45092;-62
2021/10/10 05:51:00;;;;;;;;;40.25;35.00;;;;;14.25;61.76;102218.06;6372960;22;45094;-62
2021/10/10 05:53:26;;;;;;;;;46.00;36.75;;;;;14.27;61.74;102220.72;6372754;22;45255;-62
2021/10/10 05:56:00;;;;;;;;;47.50;39.00;;;;;14.29;61.64;102229.59;6372961;22;45191;-62
2021/10/10 05:58:27;;;;;;;;;50.00;37.50;;;;;14.27;61.73;102226.94;6371915;22;46415;-62
2021/10/10 06:00:54;;;;;;;;;47.00;38.50;;;;;14.25;61.83;102227.94;6371879;22;45676;-62
2021/10/10 06:03:20;;;;;;;;;47.50;38.00;;;;;14.27;61.81;102235.00;6372451;22;45248;-62
2021/10/10 06:05:45;;;;;;;;;45.50;38.75;;;;;14.29;61.62;102231.41;6372495;22;45420;-62
2021/10/10 06:08:11;;;;;;;;;42.75;35.25;;;;;14.24;61.62;102221.66;6372106;22;45353;-62
2021/10/10 06:10:37;;;;;;;;;48.25;40.00;;;;;14.26;61.51;102235.91;6372907;22;45261;-62
2021/10/10 06:13:03;;;;;;;;;41.75;36.00;;;;;14.23;61.78;102236.03;6371889;22;45210;-62
2021/10/10 06:15:29;;;;;;;;;47.25;38.25;;;;;14.23;61.77;102233.34;6372294;22;45467;-62
2021/10/10 06:17:54;;;;;;;;;35.25;30.25;;;;;14.23;62.01;102237.81;6372504;22;45262;-62
2021/10/10 06:20:20;;;;;;;;;45.75;37.50;;;;;14.22;61.86;102239.63;6372795;22;45276;-62
2021/10/10 06:22:45;;;;;;;;;44.25;35.75;;;;;14.21;61.61;102237.84;6372917;22;45648;-62
2021/10/10 06:25:10;;;;;;;;;49.25;42.00;;;;;14.18;61.86;102237.94;6372738;22;45127;-62
2021/10/10 06:27:36;;;;;;;;;45.25;38.00;;;;;14.19;61.66;102242.38;6343523;22;46090;-62
2021/10/10 06:30:02;;;;;;;;;44.75;36.75;;;;;14.18;61.86;102237.03;6371936;22;45295;-62
2021/10/10 06:32:27;;;;;;;;;43.50;37.00;;;;;14.20;61.88;102243.25;6343873;22;45414;-62
2021/10/10 06:34:52;;;;;;;;;49.50;39.50;;;;;14.21;61.76;102247.69;6371698;22;45256;-62
2021/10/10 06:37:18;;;;;;;;;51.25;42.75;;;;;14.23;61.75;102251.22;6372311;22;46361;-62
2021/10/10 06:39:43;;;;;;;;;50.25;39.00;;;;;14.22;61.82;102250.34;6372091;22;45234;-62
2021/10/10 06:42:09;;;;;;;;;51.25;39.50;;;;;14.22;61.66;102250.34;6372644;22;45284;-62
2021/10/10 06:44:35;;;;;;;;;48.25;40.00;;;;;14.23;61.62;102251.22;6372811;22;45313;-62
2021/10/10 06:47:01;;;;;;;;;46.75;39.00;;;;;14.23;61.67;102256.59;6373563;22;45321;-62
2021/10/10 06:49:27;;;;;;;;;49.00;40.00;;;;;14.23;61.83;102257.50;6373331;22;45252;-62
2021/10/10 06:51:52;;;;;;;;;46.00;39.25;;;;;14.23;61.94;102252.13;6373877;22;45971;-62
2021/10/10 06:54:18;;;;;;;;;45.50;37.75;;;;;14.28;61.97;102254.69;6344817;22;45227;-70
2021/10/10 06:56:44;;;;;;;;;40.75;34.25;;;;;14.26;61.83;102251.16;6344931;22;46947;-70
2021/10/10 06:59:10;;;;;;;;;47.00;38.50;;;;;14.30;61.79;102271.69;6373647;22;45155;-70
2021/10/10 07:01:35;;;;;;;;;47.00;38.75;;;;;14.29;61.73;102269.91;6345212;22;45252;-71
2021/10/10 07:04:01;;;;;;;;;47.75;37.00;;;;;14.32;61.94;102275.19;6373484;22;45405;-71
2021/10/10 07:06:26;;;;;;;;;45.25;37.25;;;;;14.34;61.86;102275.16;6372914;22;45682;-71
2021/10/10 07:08:52;;;;;;;;;49.00;40.75;;;;;14.25;61.94;102265.53;6344397;22;45336;-72
2021/10/10 07:11:18;;;;;;;;;49.75;40.25;;;;;14.31;61.87;102267.19;6373138;22;45345;-70
2021/10/10 07:13:44;;;;;;;;;46.25;37.50;;;;;14.24;61.94;102258.38;6373080;22;45424;-69
2021/10/10 07:16:09;;;;;;;;;49.00;37.75;;;;;14.21;61.82;102263.81;6372702;22;45347;-70
2021/10/10 07:21:19;;;;;;;;;48.00;40.00;;;;;14.24;61.79;102274.50;6373499;22;45587;-70
2021/10/10 07:26:20;;;;;;;;;50.50;39.00;;;;;14.22;62.06;102270.97;6373160;22;45266;-70
2021/10/10 07:28:46;;;;;;;;;46.50;38.00;;;;;14.21;62.06;102275.44;6372163;22;45361;-70
2021/10/10 07:31:11;;;;;;;;;44.50;38.00;;;;;14.23;62.06;102268.25;6373308;22;45262;-70
2021/10/10 07:33:36;;;;;;;;;50.00;41.00;;;;;14.22;61.80;102271.84;6373605;22;45297;-70
2021/10/10 07:36:12;;;;;;;;;48.50;38.25;;;;;14.16;62.22;102271.97;6372920;22;45951;-70
2021/10/10 07:38:38;;;;;;;;;48.25;39.50;;;;;14.15;62.16;102277.38;6344070;22;45191;-70
2021/10/10 07:41:04;;;;;;;;;49.25;40.75;;;;;14.18;61.80;102277.31;6374096;22;45209;-70
2021/10/10 07:43:31;;;;;;;;;44.75;37.00;;;;;14.19;62.19;102269.22;6373591;22;45220;-69
2021/10/10 07:46:05;;;;;;;;;44.50;37.75;;;;;14.27;62.23;102279.78;6373188;22;45269;-70
2021/10/10 07:48:31;;;;;;;;;39.75;36.50;;;;;14.26;61.77;102272.66;6372961;22;45556;-69
2021/10/10 07:50:56;;;;;;;;;46.75;38.75;;;;;14.27;62.14;102264.56;6345031;22;45423;-71
2021/10/10 07:53:22;;;;;;;;;49.75;40.75;;;;;14.34;61.77;102278.72;6344383;22;45349;-67
2021/10/10 07:55:47;;;;;;;;;47.25;39.50;;;;;14.31;61.55;102275.22;6372461;22;45986;-72
2021/10/10 07:58:12;;;;;;;;;46.75;37.75;;;;;14.32;62.03;102285.94;6372457;22;45279;-69
2021/10/10 08:00:38;;;;;;;;;44.50;38.00;;;;;14.28;61.79;102278.84;6372636;22;45380;-68
2021/10/10 08:03:03;;;;;;;;;46.50;38.50;;;;;14.29;61.80;102274.41;6371994;22;45235;-68
2021/10/10 08:05:29;;;;;;;;;47.50;39.50;;;;;14.37;61.89;102286.72;6373420;22;45387;-69
2021/10/10 08:07:56;;;;;;;;;46.50;37.75;;;;;14.41;61.66;102296.47;6370711;22;45605;-68
2021/10/10 08:10:23;;;;;;;;;45.75;37.75;;;;;14.42;61.94;102290.19;6372781;22;45353;-68
2021/10/10 08:12:49;;;;;;;;;46.75;38.50;;;;;14.46;61.79;102297.22;6373385;22;45271;-68
2021/10/10 08:15:15;;;;;;;;;42.25;35.00;;;;;14.46;61.23;102293.66;6372566;22;45223;-68
2021/10/10 08:17:41;;;;;;;;;47.50;40.50;;;;;14.41;61.17;102296.47;6372056;22;45745;-69
2021/10/10 08:20:08;;;;;;;;;46.00;36.25;;;;;14.33;61.67;102282.31;6373465;22;45242;-70
2021/10/10 08:22:36;;;;;;;;;45.00;37.00;;;;;14.41;61.65;102279.47;6373180;22;45291;-70
2021/10/10 08:25:07;;;;;;;;;45.25;37.00;;;;;14.39;61.64;102279.50;6372949;22;46043;-69
2021/10/10 08:27:33;;;;;;;;;43.25;35.00;;;;;14.53;61.40;102307.84;6372497;22;45488;-69
2021/10/10 08:29:58;;;;;;;;;37.00;33.75;;;;;14.57;61.38;102304.19;6373124;22;45311;-69
2021/10/10 08:32:23;;;;;;;;;36.25;33.50;;;;;14.53;61.12;102291.72;6373396;22;45221;-69
2021/10/10 08:34:49;;;;;;;;;41.75;36.75;;;;;14.64;60.84;102304.00;6373455;22;45369;-67
2021/10/10 08:37:14;;;;;;;;;41.25;34.25;;;;;14.71;61.01;102302.03;6373111;22;45297;-69
2021/10/10 08:39:39;;;;;;;;;43.75;37.75;;;;;14.74;60.57;102310.03;6372943;22;45297;-68
2021/10/10 08:42:10;;;;;;;;;43.75;36.75;;;;;14.69;60.58;102298.53;6372482;22;45231;-69
2021/10/10 08:44:40;;;;;;;;;47.00;40.00;;;;;14.78;61.29;102308.16;6372519;22;47091;-69
2021/10/10 08:47:07;;;;;;;;;45.75;39.25;;;;;14.73;60.58;102286.75;6372696;22;45328;-70
2021/10/10 08:49:36;;;;;;;;;48.50;40.00;;;;;14.69;59.70;102290.47;6372612;22;45242;-69
2021/10/10 08:52:04;;;;;;;;;38.75;33.75;;;;;14.67;60.43;102278.88;6373302;22;45161;-69
2021/10/10 08:54:29;;;;;;;;;42.25;35.50;;;;;14.66;60.43;102270.84;6372498;22;46781;-69
2021/10/10 08:56:56;;;;;;;;;46.75;36.25;;;;;14.67;60.39;102277.97;6373535;22;45308;-71
2021/10/10 08:59:24;;;;;;;;;40.25;35.25;;;;;14.67;60.15;102280.66;6372679;22;45237;-69
2021/10/10 09:01:52;;;;;;;;;43.50;35.75;;;;;14.67;60.21;102289.63;6373009;22;45262;-68
2021/10/10 09:04:18;;;;;;;;;41.50;35.50;;;;;14.67;60.59;102297.69;6373294;22;45345;-71
2021/10/10 09:06:43;;;;;;;;;42.50;35.75;;;;;14.72;60.11;102311.88;6344668;22;45409;-69
2021/10/10 09:09:28;;;;;;;;;51.25;39.50;;;;;14.81;60.30;102316.16;6372468;22;45359;-67
2021/10/10 09:12:13;;;;;;;;;45.75;37.25;;;;;14.86;60.56;102316.03;6372964;22;45525;-66
2021/10/10 09:14:46;;;;;;;;;42.75;35.50;;;;;14.89;59.78;102318.66;6372401;22;46513;-67
2021/10/10 09:17:18;;;;;;;;;43.50;36.00;;;;;14.87;59.99;102307.03;6373077;22;45573;-67
2021/10/10 09:19:58;;;;;;;;;43.25;36.75;;;;;14.96;59.89;102317.56;6344473;22;45199;-67
2021/10/10 09:22:26;;;;;;;;;44.00;36.75;;;;;15.00;60.17;102319.25;6372873;22;45271;-67
2021/10/10 09:24:54;;;;;;;;;42.25;36.75;;;;;15.02;59.80;102306.66;6373171;22;45170;-68
2021/10/10 09:27:22;;;;;;;;;39.25;33.25;;;;;15.04;60.04;102315.56;6372291;22;45238;-68
2021/10/10 09:29:51;;;;;;;;;44.75;38.50;;;;;15.11;60.08;102327.91;6372812;22;45179;-69
2021/10/10 09:32:19;;;;;;;;;42.25;34.75;;;;;15.10;59.22;102342.31;6372736;22;45421;-69
2021/10/10 09:34:47;;;;;;;;;39.00;33.50;;;;;15.11;59.15;102337.81;6372783;22;45920;-69
2021/10/10 09:37:32;;;;;;;;;48.50;38.50;;;;;15.14;59.50;102322.47;6372825;22;45146;-66
2021/10/10 09:42:42;;;;;;;;;33.25;32.00;;;;;15.24;58.89;102323.09;6369002;22;45222;-70
2021/10/10 09:47:57;;;;;;;;;39.25;33.00;;;;;15.21;58.22;102325.00;6372339;22;45481;-68
2021/10/10 09:50:25;;;;;;;;;35.25;31.25;;;;;15.22;58.72;102318.69;6373173;22;45233;-68
2021/10/10 09:53:06;;;;;;;;;37.50;32.75;;;;;15.27;58.48;102319.44;6372355;22;45429;-69
2021/10/10 09:55:37;;;;;;;;;36.25;33.50;;;;;15.30;58.29;102322.94;6372669;22;45932;-69
2021/10/10 09:58:03;;;;;;;;;35.00;31.50;;;;;15.34;58.04;102327.31;6343534;22;45760;-69
2021/10/10 10:00:34;;;;;;;;;32.75;30.00;;;;;15.39;57.98;102321.81;6372530;22;45332;-69
2021/10/10 10:03:07;;;;;;;;;30.00;27.00;;;;;15.41;58.13;102316.38;6372991;22;45246;-69
2021/10/10 10:05:32;;;;;;;;;33.25;32.25;;;;;15.38;57.50;102318.25;6372399;22;46128;-69
2021/10/10 10:07:59;;;;;;;;;37.50;33.00;;;;;15.43;57.90;102322.59;6372407;22;45258;-69
2021/10/10 10:10:27;;;;;;;;;38.75;35.25;;;;;15.42;57.99;102310.97;6343712;22;45298;-69
2021/10/10 10:12:54;;;;;;;;;34.75;32.25;;;;;15.53;57.77;102308.84;6343906;22;45668;-67
2021/10/10 10:15:26;;;;;;;;;40.00;36.00;;;;;15.50;57.45;102300.88;6372142;22;45244;-71
2021/10/10 10:17:53;;;;;;;;;36.00;33.00;;;;;15.54;57.30;102305.22;6372076;22;45545;-69
2021/10/10 10:20:19;;;;;;;;;33.50;32.00;;;;;15.58;57.94;102314.09;6374170;22;45304;-69
2021/10/10 10:22:45;;;;;;;;;40.25;36.00;;;;;15.64;57.99;102316.63;6373873;22;45309;-72
2021/10/10 10:25:11;;;;;;;;;38.25;33.00;;;;;15.67;57.58;102311.16;6345549;22;48308;-66
2021/10/10 10:27:36;;;;;;;;;40.75;34.50;;;;;15.73;57.49;102315.47;6372930;22;45191;-68
2021/10/10 10:30:04;;;;;;;;;35.25;32.50;;;;;15.80;57.64;102318.91;6373720;22;45397;-68
2021/10/10 10:32:32;;;;;;;;;34.75;32.25;;;;;15.86;57.62;102326.81;6373498;22;45149;-68
2021/10/10 10:52:26;;;;;;;;;32.50;31.00;;;;;15.87;57.94;102340.22;5144903;27;45468;-68
2021/10/10 10:55:05;;;;;;;;;36.75;32.00;;;;;15.97;57.36;102334.56;5122870;27;45695;-64
2021/10/10 10:57:41;;;;;;;;;32.25;30.50;;;;;15.92;57.35;102316.75;5117767;27;45541;-65
2021/10/10 11:00:12;;;;;;;;;32.25;27.75;;;;;16.05;57.23;102324.44;5115636;27;45544;-63
2021/10/10 11:02:58;;;;;;;;;31.50;29.75;;;;;16.13;57.41;102329.59;5125093;27;45500;-64
2021/10/10 11:05:28;;;;;;;;;33.00;30.25;;;;;16.05;56.60;102305.59;5123051;27;45858;-64
2021/10/10 11:07:54;;;;;;;;;32.50;29.50;;;;;16.16;56.88;102319.63;5122842;27;45587;-65
2021/10/10 11:10:19;;;;;;;;;34.25;30.75;;;;;16.19;56.31;102324.91;5117093;27;45554;-68
2021/10/10 11:13:05;;;;;;;;;31.25;29.75;;;;;16.07;56.17;102301.94;5131870;27;48263;-65
2021/10/10 11:16:11;;;;;;;;;28.25;27.50;;;;;16.09;56.22;102291.97;5075943;27;45551;-66
2021/10/10 11:18:54;;;;;;;;;27.75;26.25;;;;;16.32;56.35;102322.69;5124963;27;45445;-67
2021/10/10 11:21:32;;;;;;;;;;;;;;;;;;;;;
2021/10/10 11:24:22;;;;;;;;;;;;;;;;;;;;;
2021/10/10 11:27:01;;;;;;;;;31.50;30.00;;;;;16.32;56.06;102289.50;5124598;27;73246;-65
2021/10/10 11:29:30;;;;;;;;;31.50;30.00;;;;;16.55;56.00;102321.09;5126964;27;45376;-68
2021/10/10 11:32:02;;;;;;;;;35.00;30.00;;;;;16.55;56.09;102313.88;5125743;27;45463;-67
2021/10/10 11:34:28;;;;;;;;;35.75;32.00;;;;;16.26;56.34;102263.63;5122437;27;47468;-65
2021/10/10 11:37:09;;;;;;;;;35.50;31.50;;;;;16.45;56.45;102277.38;5122036;27;45781;-71
2021/10/10 11:39:43;;;;;;;;;31.25;28.75;;;;;16.65;56.22;102303.69;5122584;27;45422;-68
2021/10/10 11:42:53;;;;;;;;;32.00;30.25;;;;;16.65;56.25;102301.00;5099944;22;45432;-67